Time;durP1;ratioP1;P1;durP2;ratioP2;P2;SDS_P1;SDS_P2;PMS_P1;PMS_P2;Temp;Humidity;BMP_temperature;BMP_pressure;BME280_temperature;BME280_humidity;BME280_pressure;Samples;Min_cycle;Max_cycle;Signal;HPM_P1;HPM_P2
2021/05/25 06:44:15;;;;;;;2.63;2.42;;;13.70;99.90;;;14.20;56.66;97953.34;5284814;27;20530;-61
2021/05/25 06:46:47;;;;;;;2.38;2.00;;;13.50;99.90;;;14.16;55.03;97959.16;5258605;28;20654;-62
2021/05/25 06:49:20;;;;;;;2.53;2.42;;;13.20;99.90;;;13.96;56.30;97961.75;5264247;28;21639;-62
2021/05/25 06:51:52;;;;;;;2.05;1.83;;;12.70;99.90;;;14.01;56.55;97972.22;5261834;28;20203;-62
2021/05/25 06:54:25;;;;;;;2.10;1.90;;;12.70;99.90;;;13.84;55.20;97968.00;5270636;28;20671;-63
2021/05/25 06:56:58;;;;;;;1.83;1.73;;;12.70;99.90;;;13.62;56.42;97971.25;5263019;28;20319;-62
2021/05/25 06:59:33;;;;;;;1.90;1.80;;;12.60;99.90;;;13.50;56.63;97977.56;5265745;28;20199;-62
2021/05/25 07:02:06;;;;;;;3.17;2.10;;;12.30;99.90;;;13.29;56.63;97979.13;5259236;28;20296;-62
2021/05/25 07:04:39;;;;;;;2.97;2.00;;;12.20;99.90;;;13.03;56.91;97986.38;5266945;28;20651;-59
2021/05/25 07:07:11;;;;;;;2.63;2.08;;;12.00;99.90;;;13.01;57.67;97989.69;5263746;28;20222;-62
2021/05/25 07:09:44;;;;;;;3.42;2.08;;;11.80;99.90;;;13.01;58.16;97988.00;5275499;28;20192;-63
2021/05/25 07:12:17;;;;;;;2.17;1.98;;;12.00;99.90;;;13.40;56.31;97975.38;5267000;28;20234;-62
2021/05/25 07:14:50;;;;;;;2.33;1.98;;;12.20;99.90;;;14.20;54.24;97984.22;5260632;28;20227;-62
2021/05/25 07:17:23;;;;;;;1.80;1.70;;;13.20;99.90;;;14.87;52.23;97981.13;5260730;28;20212;-61
2021/05/25 07:19:56;;;;;;;1.80;1.70;;;13.90;99.90;;;15.32;51.00;97979.56;5270644;28;20192;-62
2021/05/25 07:22:28;;;;;;;2.35;1.90;;;14.40;99.70;;;15.09;50.96;97983.78;5261037;28;20226;-61
2021/05/25 07:25:01;;;;;;;2.25;2.03;;;14.00;99.90;;;14.70;51.42;97980.41;5263641;28;20212;-62
2021/05/25 07:27:34;;;;;;;1.83;1.73;;;13.50;99.90;;;14.27;51.60;97985.34;5261180;28;20227;-63
2021/05/25 07:30:11;;;;;;;3.17;1.90;;;13.00;99.90;;;14.06;52.63;97993.00;5263681;28;20241;-63
2021/05/25 07:32:44;;;;;;;2.47;1.77;;;13.00;99.90;;;13.83;53.02;97987.66;5262216;28;20270;-63
2021/05/25 07:35:18;;;;;;;2.25;1.70;;;12.70;99.90;;;13.70;53.46;97991.34;5260976;28;20281;-63
2021/05/25 07:37:51;;;;;;;3.05;2.00;;;12.70;99.90;;;13.65;53.63;97985.13;5263646;28;20692;-63
2021/05/25 07:40:23;;;;;;;2.30;2.10;;;12.40;99.90;;;13.64;54.20;97982.47;5273339;28;20636;-61
2021/05/25 07:42:56;;;;;;;2.53;2.03;;;12.60;99.90;;;13.71;54.32;97982.84;5263800;28;20294;-62
2021/05/25 07:45:29;;;;;;;3.78;2.10;;;12.70;99.90;;;14.02;54.43;97983.34;5263679;28;20702;-62
2021/05/25 07:48:03;;;;;;;3.08;1.80;;;12.90;99.90;;;14.44;53.70;97984.41;5272252;28;20347;-63
2021/05/25 07:50:36;;;;;;;2.42;1.90;;;13.20;99.90;;;15.27;50.17;97987.94;5267829;28;20287;-63
2021/05/25 07:53:09;;;;;;;1.92;1.70;;;14.00;99.30;;;16.01;48.67;97980.53;5270400;28;20195;-61
2021/05/25 07:55:42;;;;;;;1.80;1.70;;;14.70;98.40;;;16.36;46.76;97982.72;5248414;28;20290;-63
2021/05/25 07:58:15;;;;;;;2.22;1.98;;;14.90;97.30;;;16.77;46.74;97982.44;5245226;28;20686;-64
2021/05/25 08:00:48;;;;;;;1.80;1.58;;;15.30;97.30;;;16.81;44.74;97971.41;5253213;28;20223;-63
2021/05/25 08:03:21;;;;;;;2.20;2.00;;;15.40;95.50;;;16.55;45.45;97975.66;5242809;28;20230;-63
2021/05/25 08:05:54;;;;;;;1.70;1.60;;;15.00;96.20;;;16.17;46.88;97988.91;5249712;28;20316;-62
2021/05/25 08:08:29;;;;;;;1.50;1.40;;;14.60;96.60;;;15.48;46.55;97998.22;5249352;28;20315;-63
2021/05/25 08:11:03;;;;;;;2.58;1.85;;;14.10;96.30;;;15.18;47.35;97991.00;5247215;28;20655;-63
2021/05/25 08:13:36;;;;;;;3.00;1.77;;;13.90;96.50;;;14.87;48.12;97986.28;5249778;28;20708;-63
2021/05/25 08:16:11;;;;;;;2.50;1.90;;;13.50;97.00;;;14.44;49.02;98007.56;5263314;28;20212;-63
2021/05/25 08:18:51;;;;;;;2.42;1.73;;;13.30;97.50;;;14.16;51.45;98003.75;5257074;28;20278;-63
2021/05/25 08:21:24;;;;;;;2.97;2.00;;;13.00;98.60;;;14.11;50.42;98004.38;5250166;28;20198;-62
2021/05/25 08:23:56;;;;;;;2.10;1.98;;;13.10;98.60;;;14.16;51.46;98005.44;5246529;28;20389;-61
2021/05/25 08:26:29;;;;;;;2.25;1.92;;;13.10;98.40;;;14.12;49.81;98001.84;5246811;28;20368;-63
2021/05/25 08:29:03;;;;;;;2.00;1.80;;;13.00;97.80;;;13.87;49.70;98015.25;5249797;28;20644;-61
2021/05/25 08:31:37;;;;;;;2.63;1.83;;;13.00;96.70;;;13.71;50.28;98008.53;5241388;28;20296;-63
2021/05/25 08:34:10;;;;;;;2.67;1.80;;;12.90;96.70;;;13.65;50.48;98007.34;5247451;28;20188;-63
2021/05/25 08:36:42;;;;;;;1.80;1.70;;;12.80;97.70;;;13.83;50.98;98010.78;5245520;28;20231;-62
2021/05/25 08:39:15;;;;;;;2.13;1.92;;;13.00;97.30;;;13.85;50.73;98019.47;5247071;28;20766;-62
2021/05/25 08:41:48;;;;;;;2.38;1.98;;;13.10;97.40;;;13.79;51.66;98015.72;5250336;28;20242;-62
2021/05/25 08:44:20;;;;;;;2.70;2.10;;;13.00;98.10;;;13.84;50.22;98020.25;5256430;28;20668;-63
2021/05/25 08:46:54;;;;;;;2.95;1.95;;;13.00;97.10;;;13.86;49.90;98018.66;5252414;28;20295;-63
2021/05/25 08:49:27;;;;;;;2.33;2.13;;;13.00;97.30;;;13.88;50.66;98023.88;5248875;28;20193;-64
2021/05/25 08:52:02;;;;;;;2.08;1.85;;;12.90;97.50;;;13.75;50.74;98030.97;5245580;28;20204;-63
2021/05/25 08:54:37;;;;;;;1.90;1.80;;;12.80;97.60;;;13.74;50.53;98028.34;5253064;28;20271;-63
2021/05/25 08:57:12;;;;;;;2.25;1.90;;;12.80;97.30;;;13.82;48.90;98021.91;5252590;28;20216;-63
2021/05/25 08:59:45;;;;;;;3.55;2.03;;;13.00;96.40;;;13.69;49.90;98033.25;5252212;28;20296;-62
2021/05/25 09:02:18;;;;;;;2.17;2.00;;;12.70;96.80;;;13.47;49.90;98033.03;5252888;28;20193;-63
2021/05/25 09:05:03;;;;;;;1.85;1.75;;;12.60;97.00;;;13.38;50.17;98028.34;5245355;28;20217;-63
2021/05/25 09:07:39;;;;;;;2.03;1.83;;;12.60;96.60;;;13.32;50.10;98038.31;5249330;28;20312;-62
2021/05/25 09:10:16;;;;;;;2.28;2.10;;;12.60;96.90;;;13.20;51.08;98037.69;5248471;28;20324;-63
2021/05/25 09:12:51;;;;;;;2.33;1.77;;;12.50;96.90;;;13.35;49.55;98042.72;5258647;28;20678;-64
2021/05/25 09:15:33;;;;;;;3.00;2.03;;;12.50;96.80;;;13.14;50.83;98045.97;5257205;28;20199;-61
2021/05/25 09:18:08;;;;;;;1.60;1.50;;;12.40;97.20;;;13.21;51.53;98042.88;5256475;28;20571;-62
2021/05/25 09:20:48;;;;;;;2.67;1.70;;;12.40;97.80;;;13.29;52.69;98043.28;5248464;28;20207;-64
2021/05/25 09:23:24;;;;;;;2.65;1.45;;;12.40;98.50;;;13.26;50.11;98043.16;5254842;28;20216;-62
2021/05/25 09:26:00;;;;;;;2.08;1.70;;;12.50;97.00;;;13.37;51.27;98043.69;5256791;28;20219;-62
2021/05/25 09:28:34;;;;;;;2.00;1.90;;;12.60;97.40;;;13.52;49.50;98042.72;5255224;28;20200;-60
2021/05/25 09:31:06;;;;;;;2.72;1.90;;;12.80;96.00;;;13.62;47.84;98043.16;5246111;28;20574;-62
2021/05/25 09:33:40;;;;;;;2.08;1.70;;;12.90;95.40;;;13.57;48.12;98044.66;5255650;28;20283;-63
2021/05/25 09:36:13;;;;;;;1.73;1.63;;;12.90;95.50;;;13.69;48.18;98048.66;5255240;28;20219;-63
2021/05/25 09:38:46;;;;;;;3.92;1.90;;;12.90;95.60;;;13.70;48.38;98058.13;5250808;28;20612;-63
2021/05/25 09:41:19;;;;;;;2.00;1.90;;;13.00;95.60;;;13.67;49.58;98063.13;5253985;28;20625;-63
2021/05/25 09:43:54;;;;;;;2.60;1.40;;;12.90;95.60;;;13.55;49.05;98059.09;5255207;28;20215;-61
2021/05/25 09:46:31;;;;;;;1.88;1.65;;;12.90;95.80;;;13.48;48.51;98073.34;5259724;28;20243;-61
2021/05/25 09:49:05;;;;;;;1.80;1.70;;;12.80;95.40;;;13.48;49.67;98071.66;5251164;28;20219;-63
2021/05/25 09:51:37;;;;;;;1.73;1.60;;;12.80;95.90;;;13.61;48.72;98072.22;5251771;28;20196;-64
2021/05/25 09:54:21;;;;;;;2.10;2.00;;;12.80;95.90;;;13.71;49.13;98075.31;5247845;28;20271;-61
2021/05/25 09:56:57;;;;;;;1.70;1.60;;;12.90;96.10;;;13.80;49.45;98074.88;5250349;28;20215;-62
2021/05/25 09:59:33;;;;;;;2.40;1.92;;;12.90;96.20;;;13.82;47.86;98077.50;5258202;28;20606;-62
2021/05/25 10:02:19;;;;;;;2.35;1.60;;;13.00;95.30;;;13.94;48.18;98071.28;5244175;28;20210;-61
2021/05/25 10:05:01;;;;;;;1.58;1.45;;;13.10;95.80;;;14.05;47.54;98076.03;5245470;28;20303;-60
2021/05/25 10:07:36;;;;;;;2.45;1.73;;;13.20;94.60;;;13.96;48.47;98081.63;5248537;28;20303;-58
2021/05/25 10:10:12;;;;;;;2.70;1.73;;;13.10;95.60;;;13.90;49.01;98077.06;5247692;28;20659;-61
2021/05/25 10:12:46;;;;;;;2.20;1.85;;;13.10;96.20;;;13.94;48.22;98084.13;5256336;28;20283;-63
2021/05/25 10:15:20;;;;;;;1.85;1.70;;;13.10;95.60;;;13.93;48.96;98095.19;5250441;28;20281;-62
2021/05/25 10:21:04;;;;;;;1.70;1.60;;;13.10;96.00;;;14.20;48.97;98095.63;5239134;28;20564;-63
2021/05/25 10:23:39;;;;;;;3.80;1.70;;;13.20;95.70;;;14.14;47.94;98102.19;5242252;28;20212;-63
2021/05/25 10:26:16;;;;;;;1.77;1.67;;;13.30;95.00;;;13.96;47.94;98097.94;5251583;28;20320;-63
2021/05/25 10:28:51;;;;;;;1.70;1.60;;;13.20;95.60;;;14.16;49.14;98105.69;5254469;28;20269;-61
2021/05/25 10:31:29;;;;;;;2.38;2.05;;;13.30;95.70;;;14.25;48.25;98108.72;5238405;28;20196;-62
2021/05/25 10:34:16;;;;;;;3.38;2.17;;;13.40;95.80;;;14.19;48.17;98095.53;5244144;28;20286;-64
2021/05/25 10:36:53;;;;;;;2.63;1.80;;;13.40;95.40;;;14.26;48.34;98107.03;5233511;28;20257;-63
2021/05/25 10:39:39;;;;;;;2.20;2.00;;;13.20;95.90;;;14.42;47.69;98104.31;5243807;28;20222;-62
2021/05/25 10:42:31;;;;;;;2.10;1.90;;;13.40;95.70;;;14.56;47.69;98111.00;5239765;28;20243;-64
2021/05/25 10:45:23;;;;;;;1.70;1.60;;;13.60;95.30;;;14.77;48.06;98105.97;5247589;28;20597;-63
2021/05/25 10:48:01;;;;;;;2.95;1.70;;;13.90;95.30;;;14.99;48.34;98104.31;5244747;28;20583;-62
2021/05/25 10:50:37;;;;;;;1.95;1.85;;;14.10;95.60;;;15.13;46.40;98098.06;5246568;28;20283;-62
2021/05/25 10:53:23;;;;;;;2.25;1.83;;;14.50;94.40;;;15.25;46.04;98093.47;5246329;28;20200;-63
2021/05/25 10:55:56;;;;;;;1.77;1.67;;;14.60;93.90;;;15.37;45.04;98082.81;5247396;28;20244;-63
2021/05/25 10:58:31;;;;;;;2.45;2.03;;;14.60;93.10;;;15.33;44.76;98092.06;5245571;28;20234;-61
2021/05/25 11:01:07;;;;;;;2.28;1.95;;;14.70;92.90;;;15.36;45.18;98077.56;5250346;28;20203;-63
2021/05/25 11:03:45;;;;;;;1.90;1.70;;;14.80;92.90;;;15.50;44.30;98084.19;5260128;28;20252;-63
2021/05/25 11:06:30;;;;;;;1.95;1.77;;;14.90;92.30;;;15.57;44.73;98090.44;5242566;28;20277;-61
2021/05/25 11:09:26;;;;;;;2.33;2.00;;;14.90;92.50;;;15.50;44.55;98094.47;5245069;28;20287;-61
2021/05/25 11:12:13;;;;;;;2.10;1.90;;;14.60;93.00;;;15.33;43.46;98086.91;5233610;28;20254;-64
2021/05/25 11:15:14;;;;;;;1.80;1.70;;;14.60;91.90;;;15.25;44.48;98092.56;5245030;28;20699;-64
2021/05/25 11:17:48;;;;;;;2.10;1.83;;;14.40;92.50;;;15.05;45.58;98112.31;5245669;28;20641;-62
2021/05/25 11:20:54;;;;;;;3.78;1.95;;;14.20;93.00;;;14.86;45.77;98131.22;5250675;28;20287;-63
2021/05/25 11:23:41;;;;;;;2.03;1.80;;;13.90;93.40;;;14.49;47.28;98132.09;5241900;28;20668;-63
2021/05/25 11:26:56;;;;;;;2.17;1.67;;;13.60;94.30;;;14.38;48.20;98139.31;5247435;28;20627;-63
2021/05/25 11:29:32;;;;;;;2.55;2.00;;;13.50;95.10;;;14.11;51.91;98145.75;5237378;28;20316;-61
2021/05/25 11:32:12;;;;;;;2.30;2.10;;;13.20;98.50;;;13.64;56.59;98139.16;5249699;28;20196;-63
2021/05/25 11:34:45;;;;;;;2.05;1.88;;;13.00;99.90;;;13.63;56.36;98128.00;5259089;28;20291;-63
2021/05/25 11:37:17;;;;;;;1.90;1.80;;;13.00;99.90;;;13.63;59.23;98122.88;5253870;28;20774;-62
2021/05/25 11:39:52;;;;;;;2.92;2.05;;;13.00;99.90;;;13.79;59.15;98103.94;5259403;28;20624;-62
2021/05/25 11:42:27;;;;;;;3.08;1.90;;;13.10;99.90;;;14.07;58.88;98105.25;5243242;28;20324;-63
2021/05/25 11:45:01;;;;;;;1.90;1.80;;;13.40;99.90;;;14.21;59.02;98104.22;5247132;28;20754;-62
2021/05/25 11:47:33;;;;;;;2.05;1.70;;;13.60;99.90;;;14.26;58.77;98102.75;5248521;28;20566;-61
2021/05/25 11:50:08;;;;;;;2.75;2.08;;;13.70;99.90;;;14.36;57.42;98120.34;5251043;28;20731;-58
2021/05/25 11:53:01;;;;;;;2.25;2.03;;;13.70;99.90;;;14.44;57.04;98128.44;5255232;28;20215;-62
2021/05/25 11:55:34;;;;;;;5.20;2.30;;;13.70;99.90;;;14.49;56.18;98151.81;5251295;28;20254;-59
2021/05/25 11:58:08;;;;;;;3.78;2.67;;;13.60;99.90;;;14.08;59.69;98185.03;5249289;28;20719;-62
2021/05/25 12:00:41;;;;;;;2.78;2.00;;;13.40;99.90;;;13.65;64.73;98217.97;5255766;28;20642;-63
2021/05/25 12:03:14;;;;;;;4.03;2.20;;;13.00;99.90;;;12.91;69.47;98198.72;5244136;28;20645;-61
2021/05/25 12:05:48;;;;;;;2.42;1.98;;;12.40;99.90;;;12.14;71.21;98186.84;5250847;28;20217;-63
2021/05/25 12:08:21;;;;;;;1.73;1.63;;;11.70;99.90;;;11.72;74.78;98183.56;5243857;28;20567;-63
2021/05/25 12:10:54;;;;;;;2.60;2.40;;;11.30;99.90;;;11.81;79.34;98179.78;5246047;28;20291;-64
2021/05/25 12:13:27;;;;;;;2.17;2.05;;;11.30;99.90;;;11.84;81.78;98172.25;5251332;28;20711;-62
2021/05/25 12:16:00;;;;;;;2.35;2.17;;;11.30;99.90;;;12.05;80.96;98173.53;5251059;28;20315;-63
2021/05/25 12:18:37;;;;;;;2.20;2.00;;;11.50;99.90;;;12.14;79.99;98165.47;5245715;28;20207;-62
2021/05/25 12:21:11;;;;;;;3.05;2.63;;;11.60;99.90;;;12.24;82.35;98175.41;5254106;28;20231;-63
2021/05/25 12:23:45;;;;;;;3.35;2.08;;;11.70;99.90;;;12.23;83.03;98172.78;5254898;28;20565;-62
2021/05/25 12:26:29;;;;;;;2.80;2.38;;;11.80;99.90;;;12.37;80.63;98162.50;5247468;28;20216;-63
2021/05/25 12:29:02;;;;;;;2.20;2.10;;;11.90;99.90;;;12.54;80.16;98155.72;5254508;28;20327;-61
2021/05/25 12:31:35;;;;;;;2.80;2.60;;;12.00;99.90;;;12.56;82.59;98149.00;5245097;28;20204;-63
2021/05/25 12:34:08;;;;;;;5.13;2.63;;;12.10;99.90;;;12.66;83.45;98157.19;5247338;28;20196;-62
2021/05/25 12:36:55;;;;;;;3.17;2.40;;;12.20;99.90;;;12.86;77.80;98143.72;5248700;28;20221;-62
2021/05/25 12:39:37;;;;;;;2.58;2.10;;;12.50;99.90;;;13.06;78.93;98150.78;5243889;28;20604;-63
2021/05/25 12:42:14;;;;;;;2.40;1.90;;;12.60;99.90;;;13.10;76.89;98143.22;5256690;28;20205;-62
2021/05/25 12:44:47;;;;;;;2.90;2.00;;;12.70;99.90;;;13.05;71.72;98145.59;5252862;28;20216;-62
2021/05/25 12:47:20;;;;;;;3.10;2.40;;;12.70;99.90;;;13.11;73.75;98135.63;5248240;28;20235;-64
2021/05/25 12:50:06;;;;;;;2.47;2.10;;;12.80;99.90;;;13.31;73.20;98139.25;5249651;28;20295;-62
2021/05/25 12:52:39;;;;;;;2.63;2.03;;;13.00;99.90;;;13.49;72.99;98135.03;5242336;28;20652;-63
2021/05/25 12:55:14;;;;;;;2.60;2.00;;;13.30;99.90;;;13.78;72.66;98132.13;5253328;28;20597;-63
2021/05/25 12:57:49;;;;;;;2.45;2.20;;;13.40;99.90;;;13.83;68.39;98131.56;5247435;28;20216;-64
2021/05/25 13:00:29;;;;;;;3.10;2.17;;;13.40;99.90;;;13.99;63.96;98125.44;5246434;28;20279;-61
2021/05/25 13:03:04;;;;;;;3.10;2.05;;;13.50;99.90;;;14.05;59.70;98127.44;5244519;28;20207;-62
2021/05/25 13:05:39;;;;;;;3.90;1.95;;;13.70;99.90;;;14.06;60.98;98124.94;5257509;28;20238;-62
2021/05/25 13:08:24;;;;;;;2.15;1.92;;;13.70;99.90;;;14.22;57.86;98126.53;5244593;28;20307;-62
2021/05/25 13:11:06;;;;;;;4.88;1.85;;;13.80;99.90;;;14.44;53.84;98125.84;5255365;28;20709;-60
2021/05/25 13:13:41;;;;;;;4.80;2.03;;;14.10;99.90;;;14.61;55.21;98121.53;5250327;28;20193;-61
2021/05/25 13:16:22;;;;;;;3.42;2.20;;;14.10;99.90;;;14.69;55.39;98120.19;5244716;28;20302;-60
2021/05/25 13:18:55;;;;;;;3.33;1.88;;;14.20;99.90;;;14.77;55.23;98123.09;5245270;28;20279;-62
2021/05/25 13:21:28;;;;;;;2.95;1.95;;;14.20;99.90;;;14.74;51.38;98129.00;5245059;28;20656;-61
2021/05/25 13:24:03;;;;;;;2.00;1.90;;;14.20;97.90;;;14.86;49.98;98129.53;5251773;28;20596;-61
2021/05/25 13:26:39;;;;;;;2.83;2.00;;;14.30;97.00;;;14.91;49.02;98123.69;5262342;28;20238;-59
2021/05/25 13:29:17;;;;;;;2.63;2.00;;;14.40;96.20;;;14.83;50.30;98134.53;5257884;28;20287;-62
2021/05/25 13:31:52;;;;;;;3.47;1.98;;;14.40;96.60;;;14.80;49.98;98124.13;5250268;28;20196;-62
2021/05/25 13:34:25;;;;;;;3.25;2.00;;;14.40;96.70;;;14.82;48.78;98124.16;5252145;28;20735;-61
2021/05/25 13:36:58;;;;;;;2.90;2.00;;;14.40;95.70;;;14.85;49.65;98132.94;5246019;28;20386;-58
2021/05/25 13:39:31;;;;;;;3.03;2.00;;;14.30;96.50;;;14.86;46.21;98119.22;5243073;28;20291;-63
2021/05/25 13:42:03;;;;;;;1.65;1.55;;;14.50;93.70;;;14.79;46.15;98118.88;5257458;28;20235;-61
2021/05/25 13:44:36;;;;;;;2.13;1.70;;;14.40;93.40;;;14.93;45.73;98119.50;5243860;28;20711;-61
2021/05/25 13:47:10;;;;;;;2.47;1.90;;;14.50;93.40;;;14.90;46.08;98115.09;5242876;28;20305;-62
2021/05/25 13:49:44;;;;;;;2.20;1.92;;;14.30;93.70;;;14.76;46.34;98122.19;5244456;28;20195;-61
2021/05/25 13:52:18;;;;;;;1.92;1.60;;;14.20;93.40;;;14.86;47.25;98111.50;5246800;28;20306;-62
2021/05/25 13:54:52;;;;;;;2.35;2.00;;;14.30;94.80;;;14.86;48.47;98114.09;5244256;28;20284;-60
2021/05/25 13:57:25;;;;;;;1.60;1.40;;;14.30;95.00;;;15.06;48.05;98102.09;5252593;28;20250;-61
2021/05/25 14:00:09;;;;;;;2.15;1.75;;;14.40;95.00;;;15.27;45.10;98086.66;5258479;28;20294;-62
2021/05/25 14:02:43;;;;;;;2.42;1.67;;;14.60;93.10;;;15.43;44.17;98092.47;5244403;28;20322;-60
2021/05/25 14:05:15;;;;;;;2.55;1.80;;;14.90;92.40;;;15.32;42.96;98069.72;5244046;28;20243;-61
2021/05/25 14:07:52;;;;;;;2.08;1.80;;;14.90;90.80;;;15.37;43.84;98087.94;5259769;28;20889;-60
2021/05/25 14:10:25;;;;;;;1.80;1.70;;;14.90;91.70;;;15.40;45.11;98089.78;5255332;28;20306;-61
2021/05/25 14:12:58;;;;;;;3.25;1.90;;;14.80;92.90;;;15.38;43.31;98078.53;5247991;28;20883;-60
2021/05/25 14:15:33;;;;;;;1.98;1.58;;;14.90;91.00;;;15.42;43.29;98085.56;5252082;28;20948;-62
2021/05/25 14:18:07;;;;;;;1.75;1.63;;;14.80;91.50;;;15.41;43.70;98086.38;5256082;28;20294;-61
2021/05/25 14:20:40;;;;;;;1.83;1.70;;;14.80;91.60;;;15.42;44.82;98086.41;5248768;28;20200;-62
2021/05/25 14:23:13;;;;;;;2.75;1.90;;;14.90;92.40;;;15.47;45.67;98084.94;5233392;23;20324;-60
2021/05/25 14:25:46;;;;;;;2.05;1.48;;;14.90;93.10;;;15.68;43.62;98081.50;5206675;28;20217;-59
2021/05/25 14:28:18;;;;;;;2.22;1.63;;;15.00;91.40;;;15.75;41.67;98080.94;5208282;28;20261;-60
2021/05/25 14:30:51;;;;;;;1.77;1.50;;;15.10;90.00;;;15.65;42.56;98094.22;5205093;28;20207;-59
2021/05/25 14:33:25;;;;;;;2.13;1.50;;;14.90;90.90;;;15.64;41.51;98088.19;5190790;28;20658;-61
2021/05/25 14:35:58;;;;;;;3.63;1.98;;;14.90;90.00;;;15.67;42.40;98077.13;5184517;28;20237;-60
2021/05/25 14:38:30;;;;;;;2.10;1.92;;;14.90;90.80;;;15.57;42.61;98070.75;5187166;28;20292;-59
2021/05/25 14:41:04;;;;;;;2.40;1.83;;;14.80;90.80;;;15.76;41.47;98075.81;5184230;28;20236;-61
2021/05/25 14:43:36;;;;;;;2.10;2.00;;;15.00;89.60;;;15.83;41.93;98086.41;5186773;28;20314;-60
2021/05/25 14:46:09;;;;;;;2.50;1.70;;;15.20;90.30;;;15.89;41.70;98087.53;5186213;28;20525;-59
2021/05/25 14:48:43;;;;;;;1.83;1.70;;;15.20;89.90;;;15.91;40.72;98080.75;5186207;28;20264;-59
2021/05/25 14:51:16;;;;;;;2.20;1.50;;;15.10;88.90;;;15.88;40.64;98074.56;5187249;28;20266;-57
2021/05/25 14:53:51;;;;;;;1.80;1.63;;;15.10;89.10;;;15.85;41.43;98077.94;5186668;28;20629;-59
2021/05/25 14:56:26;;;;;;;1.80;1.70;;;15.00;90.10;;;15.91;42.08;98074.69;5186586;28;20507;-59
2021/05/25 14:58:59;;;;;;;3.47;1.70;;;15.00;90.90;;;16.01;42.33;98078.53;5187038;28;20589;-59
2021/05/25 15:01:36;;;;;;;1.67;1.40;;;15.00;90.90;;;16.08;41.56;98063.34;5185575;28;20718;-59
2021/05/25 15:04:13;;;;;;;2.15;1.70;;;15.00;90.30;;;16.00;42.88;98072.50;5189699;28;20233;-59
2021/05/25 15:06:50;;;;;;;2.20;1.70;;;14.90;91.70;;;16.04;42.96;98068.31;5190539;28;20596;-61
2021/05/25 15:09:25;;;;;;;2.17;1.80;;;15.00;91.70;;;16.18;42.36;98062.00;5190707;28;20270;-61
2021/05/25 15:11:58;;;;;;;2.17;1.90;;;15.10;92.00;;;16.06;42.89;98072.72;5188837;28;20236;-60
2021/05/25 15:14:31;;;;;;;3.92;1.90;;;15.10;91.00;;;16.16;43.55;98061.06;5189326;28;20795;-58
2021/05/25 15:17:04;;;;;;;2.60;1.73;;;15.10;91.90;;;16.24;42.78;98061.34;5189760;28;20297;-59
2021/05/25 15:19:37;;;;;;;1.70;1.60;;;15.20;91.50;;;16.09;43.59;98065.09;5190010;28;20199;-61
2021/05/25 15:22:11;;;;;;;1.60;1.50;;;15.20;91.60;;;16.25;41.96;98052.78;5189989;28;20261;-60
2021/05/25 15:24:44;;;;;;;2.55;1.80;;;15.30;90.70;;;16.39;41.56;98051.59;5189286;28;20322;-61
2021/05/25 15:27:17;;;;;;;1.70;1.60;;;15.40;90.20;;;16.18;41.43;98049.97;5192091;28;20289;-62
2021/05/25 15:29:49;;;;;;;2.72;2.00;;;15.40;90.00;;;16.07;42.13;98052.97;5187153;28;20586;-59
2021/05/25 15:32:23;;;;;;;1.85;1.70;;;15.30;90.30;;;16.28;41.24;98038.31;5189381;28;20717;-57
2021/05/25 15:34:56;;;;;;;1.90;1.80;;;15.40;89.80;;;16.24;40.67;98038.13;5189686;28;20191;-60
2021/05/25 15:37:29;;;;;;;1.75;1.60;;;15.50;88.10;;;16.38;39.68;98034.38;5188083;28;20689;-59
2021/05/25 15:40:05;;;;;;;1.70;1.50;;;15.60;86.40;;;16.21;40.01;98038.91;5188130;28;20205;-58
2021/05/25 15:42:38;;;;;;;2.15;1.90;;;15.50;86.80;;;16.16;40.19;98038.72;5188865;28;20316;-56
2021/05/25 15:45:11;;;;;;;1.98;1.65;;;15.40;87.80;;;16.14;39.83;98035.22;5186374;28;20231;-57
2021/05/25 15:47:44;;;;;;;1.73;1.63;;;15.40;86.20;;;16.16;39.68;98043.00;5188297;28;20225;-59
2021/05/25 15:50:24;;;;;;;2.90;1.80;;;15.40;85.70;;;16.24;39.96;98041.59;5188075;28;20213;-59
2021/05/25 15:52:59;;;;;;;2.63;1.70;;;15.40;86.80;;;16.28;38.97;98034.84;5189157;28;20516;-58
2021/05/25 15:55:34;;;;;;;1.67;1.55;;;15.50;85.10;;;16.25;39.25;98042.47;5186978;28;20725;-59
2021/05/25 15:58:08;;;;;;;1.85;1.70;;;15.50;85.30;;;16.32;39.61;98039.31;5186540;28;20332;-61
2021/05/25 16:00:41;;;;;;;2.70;1.60;;;15.60;86.10;;;16.42;39.97;98036.22;5189675;28;21667;-58
2021/05/25 16:03:15;;;;;;;2.08;1.70;;;15.70;85.90;;;16.55;38.36;98037.56;5187528;28;20821;-60
2021/05/25 16:05:48;;;;;;;1.70;1.60;;;15.90;84.10;;;16.54;38.18;98046.13;5187794;28;20225;-60
2021/05/25 16:08:22;;;;;;;2.63;1.70;;;15.90;83.40;;;16.37;38.80;98037.78;5187426;28;20301;-61
2021/05/25 16:10:55;;;;;;;2.30;1.75;;;15.80;84.20;;;16.30;38.19;98025.47;5187079;28;20198;-59
2021/05/25 16:13:27;;;;;;;2.92;1.70;;;15.60;82.90;;;16.26;38.40;98021.03;5178704;28;20716;-60
2021/05/25 16:16:00;;;;;;;1.85;1.70;;;15.60;83.30;;;16.25;38.91;98048.50;5187234;28;20213;-60
2021/05/25 16:18:33;;;;;;;3.40;1.80;;;15.60;83.90;;;16.35;39.14;98036.84;5182822;28;20202;-60
2021/05/25 16:21:07;;;;;;;2.00;1.75;;;15.50;85.10;;;16.25;39.62;98045.03;5185162;28;20199;-60
2021/05/25 16:23:40;;;;;;;2.00;1.90;;;15.40;85.30;;;16.30;39.19;98034.06;5185816;28;20243;-60
2021/05/25 16:26:14;;;;;;;2.83;1.80;;;15.40;84.50;;;16.20;39.51;98030.28;5185629;28;20272;-60
2021/05/25 16:28:48;;;;;;;1.65;1.55;;;15.50;84.60;;;16.20;39.47;98039.72;5184619;28;20592;-59
2021/05/25 16:31:21;;;;;;;2.42;1.77;;;15.50;86.00;;;16.18;39.32;98036.22;5183452;28;20316;-59
2021/05/25 16:33:54;;;;;;;2.60;1.85;;;15.60;84.50;;;16.14;38.29;98036.94;5187470;28;20265;-59
2021/05/25 16:36:27;;;;;;;2.10;1.75;;;15.60;82.90;;;16.00;39.15;98036.38;5185026;28;20202;-60
2021/05/25 16:39:00;;;;;;;2.33;1.80;;;15.40;84.10;;;15.98;38.64;98036.31;5188983;28;20723;-60
2021/05/25 16:41:33;;;;;;;2.15;1.60;;;15.30;82.80;;;16.03;39.75;98036.50;5186620;28;20698;-61
2021/05/25 16:44:07;;;;;;;2.22;1.65;;;15.30;84.70;;;16.12;39.48;98041.13;5189192;28;20205;-59
2021/05/25 16:46:40;;;;;;;2.42;1.90;;;15.40;84.20;;;16.06;40.03;98034.03;5187469;28;20585;-60
2021/05/25 16:49:12;;;;;;;2.50;2.10;;;15.30;84.80;;;16.13;39.39;98037.72;5187485;28;20687;-58
2021/05/25 16:51:46;;;;;;;1.75;1.65;;;15.40;84.70;;;16.12;39.03;98035.97;5185838;28;20570;-59
2021/05/25 16:54:18;;;;;;;2.33;1.73;;;15.30;84.10;;;16.04;38.80;98043.41;5186614;28;20293;-59
2021/05/25 16:56:51;;;;;;;2.33;1.90;;;15.20;83.70;;;16.03;39.62;98033.94;5184414;28;20434;-57
2021/05/25 16:59:23;;;;;;;2.25;1.67;;;15.10;85.40;;;16.08;39.43;98035.00;5187553;28;20738;-57
2021/05/25 17:02:00;;;;;;;2.03;1.80;;;15.10;85.40;;;16.01;39.60;98037.25;5186568;28;20603;-61
2021/05/25 17:04:42;;;;;;;4.57;2.17;;;15.10;85.30;;;15.82;41.52;98036.53;5185205;28;20222;-59
2021/05/25 17:07:39;;;;;;;2.45;1.80;;;15.00;88.00;;;15.87;40.98;98029.00;5187883;28;20228;-59
2021/05/25 17:13:08;;;;;;;3.03;2.50;;;15.00;87.60;;;15.76;41.56;98032.00;5184135;28;20284;-59
2021/05/25 17:18:33;;;;;;;2.05;1.70;;;14.90;86.40;;;15.74;40.71;98043.97;5187779;28;20194;-60
2021/05/25 17:21:07;;;;;;;1.90;1.70;;;14.90;86.50;;;15.87;40.71;98039.31;5186850;28;20233;-60
2021/05/25 17:23:40;;;;;;;2.38;1.77;;;15.00;86.60;;;15.86;41.01;98032.41;5187780;28;20223;-58
2021/05/25 17:29:04;;;;;;;2.25;2.05;;;15.00;85.40;;;15.70;40.64;98025.75;5186542;28;20730;-58
2021/05/25 17:31:36;;;;;;;3.80;1.95;;;14.90;86.30;;;15.75;40.82;98035.44;5186581;28;20198;-58
2021/05/25 17:34:09;;;;;;;2.08;1.88;;;14.90;87.50;;;15.73;40.78;98031.03;5187234;28;20206;-60
2021/05/25 17:36:42;;;;;;;3.58;2.00;;;14.80;86.80;;;15.61;41.48;98035.66;5186636;28;20570;-59
2021/05/25 17:39:16;;;;;;;2.20;2.00;;;14.70;87.60;;;15.64;40.00;98038.38;5186949;28;20291;-58
2021/05/25 17:41:48;;;;;;;2.85;2.25;;;14.80;85.40;;;15.64;40.55;98031.50;5186355;28;20278;-57
2021/05/25 17:44:21;;;;;;;2.78;1.95;;;14.90;85.50;;;15.55;39.49;98032.03;5187599;28;20230;-59
2021/05/25 17:46:54;;;;;;;3.08;1.98;;;14.90;83.60;;;15.48;39.59;98034.28;5180249;28;20258;-60
2021/05/25 17:49:26;;;;;;;3.55;1.70;;;14.80;83.80;;;15.37;40.12;98036.44;5192094;28;20226;-60